createdAt,value
2023-04-16T00:02:03.746Z,27.67
2023-04-16T00:04:31.395Z,21.43
2023-04-16T00:06:58.376Z,23.07
2023-04-16T00:09:25.402Z,25.70
2023-04-16T00:11:52.329Z,28.60
2023-04-16T00:14:19.207Z,30.73
2023-04-16T00:16:46.131Z,24.80
2023-04-16T00:19:13.284Z,30.67
2023-04-16T00:21:40.346Z,24.60
2023-04-16T00:24:07.407Z,26.90
2023-04-16T00:26:34.900Z,23.43
2023-04-16T00:29:02.440Z,24.40
2023-04-16T00:31:33.966Z,23.07
2023-04-16T00:34:03.795Z,23.17
2023-04-16T00:36:30.732Z,23.10
2023-04-16T00:38:57.711Z,21.37
2023-04-16T00:41:25.079Z,21.93
2023-04-16T00:43:52.055Z,22.57
2023-04-16T00:46:21.822Z,17.43
2023-04-16T00:48:49.600Z,21.50
2023-04-16T00:51:17.218Z,19.93
2023-04-16T00:53:45.576Z,18.03
2023-04-16T00:56:13.544Z,22.40
2023-04-16T00:58:40.734Z,23.93
2023-04-16T01:01:07.853Z,19.23
2023-04-16T01:03:39.787Z,18.00
2023-04-16T01:06:07.924Z,20.47
2023-04-16T01:08:34.831Z,25.23
2023-04-16T01:11:02.662Z,23.67
2023-04-16T01:13:30.173Z,20.30
2023-04-16T01:15:57.117Z,18.87
2023-04-16T01:18:24.762Z,24.07
2023-04-16T01:20:52.328Z,18.30
2023-04-16T01:23:19.684Z,18.63
2023-04-16T01:25:46.977Z,20.73
2023-04-16T01:28:14.151Z,19.70
2023-04-16T01:30:41.605Z,21.50
2023-04-16T01:33:31.814Z,18.13
2023-04-16T01:35:58.780Z,19.73
2023-04-16T01:38:25.703Z,22.10
2023-04-16T01:40:57.725Z,19.33
2023-04-16T01:43:25.750Z,21.33
2023-04-16T01:46:08.212Z,22.93
2023-04-16T01:48:35.084Z,23.37
2023-04-16T01:51:02.013Z,21.40
2023-04-16T01:53:29.033Z,20.07
2023-04-16T01:55:55.874Z,20.37
2023-04-16T01:58:22.902Z,19.17
2023-04-16T02:00:49.976Z,21.13
2023-04-16T02:03:17.813Z,23.50
2023-04-16T02:05:44.840Z,20.47
2023-04-16T02:08:11.835Z,20.97
2023-04-16T02:10:38.685Z,18.67
2023-04-16T02:13:05.812Z,18.27
2023-04-16T02:15:32.729Z,28.23
2023-04-16T02:18:00.566Z,20.77
2023-04-16T02:20:29.108Z,23.97
2023-04-16T02:22:59.955Z,21.60
2023-04-16T02:25:27.478Z,24.20
2023-04-16T02:27:56.418Z,21.77
2023-04-16T02:30:39.056Z,28.03
2023-04-16T02:33:08.661Z,27.07
2023-04-16T02:35:41.383Z,26.20
2023-04-16T02:38:09.052Z,25.23
2023-04-16T02:40:36.678Z,27.20
2023-04-16T02:43:03.783Z,30.93
2023-04-16T02:45:31.721Z,28.73
2023-04-16T02:47:59.597Z,27.60
2023-04-16T02:50:26.781Z,29.50
2023-04-16T02:52:53.758Z,34.50
2023-04-16T02:55:20.720Z,27.87
2023-04-16T02:57:47.666Z,25.80
2023-04-16T03:00:14.643Z,25.37
2023-04-16T03:02:42.581Z,25.53
2023-04-16T03:05:10.276Z,26.60
2023-04-16T03:07:39.212Z,32.33
2023-04-16T03:10:07.275Z,30.10
2023-04-16T03:12:34.207Z,28.90
2023-04-16T03:15:01.166Z,34.83
2023-04-16T03:17:28.052Z,32.97
2023-04-16T03:19:55.929Z,32.60
2023-04-16T03:22:23.072Z,31.73
2023-04-16T03:24:50.352Z,27.47
2023-04-16T03:27:17.310Z,30.43
2023-04-16T03:29:45.319Z,28.33
2023-04-16T03:32:12.795Z,28.07
2023-04-16T03:34:39.799Z,25.70
2023-04-16T03:37:06.937Z,22.93
2023-04-16T03:39:34.610Z,17.77
2023-04-16T03:42:02.371Z,21.40
2023-04-16T03:44:29.839Z,23.37
2023-04-16T03:46:57.275Z,27.47
2023-04-16T03:49:24.468Z,25.67
2023-04-16T03:51:52.508Z,24.63
2023-04-16T03:54:22.070Z,30.63
2023-04-16T03:56:57.218Z,33.00
2023-04-16T03:59:24.262Z,29.77
2023-04-16T04:01:51.257Z,30.53
2023-04-16T04:04:18.610Z,32.03
2023-04-16T04:06:47.052Z,32.10
2023-04-16T04:09:15.165Z,27.17
2023-04-16T04:11:43.440Z,31.47
2023-04-16T04:14:10.321Z,30.00
2023-04-16T04:16:37.289Z,31.10
2023-04-16T04:19:04.456Z,26.37
2023-04-16T04:21:31.968Z,33.27
2023-04-16T04:23:59.074Z,27.73
2023-04-16T04:26:29.531Z,30.90
2023-04-16T04:28:57.220Z,33.57
2023-04-16T04:31:24.165Z,26.20
2023-04-16T04:33:51.337Z,26.97
2023-04-16T04:36:18.595Z,31.23
2023-04-16T04:38:45.607Z,31.97
2023-04-16T04:41:12.624Z,29.47
2023-04-16T04:43:39.598Z,34.80
2023-04-16T04:46:07.335Z,27.17
2023-04-16T04:48:34.990Z,26.00
2023-04-16T04:51:05.320Z,24.60
2023-04-16T04:53:33.276Z,27.03
2023-04-16T04:56:11.059Z,17.73
2023-04-16T04:58:39.439Z,27.83
2023-04-16T05:01:06.877Z,26.50
2023-04-16T05:03:33.862Z,30.23
2023-04-16T05:06:01.002Z,25.30
2023-04-16T05:08:28.106Z,35.50
2023-04-16T05:10:55.111Z,28.53
2023-04-16T05:13:21.993Z,22.77
2023-04-16T05:15:49.053Z,30.40
2023-04-16T05:18:15.988Z,32.70
2023-04-16T05:20:43.252Z,33.07
2023-04-16T05:23:10.355Z,28.80
2023-04-16T05:25:37.192Z,33.37
2023-04-16T05:28:04.082Z,25.17
2023-04-16T05:30:31.072Z,34.27
2023-04-16T05:32:57.934Z,29.13
2023-04-16T05:35:25.179Z,26.47
2023-04-16T05:37:52.124Z,34.00
2023-04-16T05:40:19.003Z,38.33
2023-04-16T05:42:45.834Z,26.50
2023-04-16T05:45:12.747Z,32.80
2023-04-16T05:47:39.683Z,29.37
2023-04-16T05:50:07.144Z,32.13
2023-04-16T05:52:34.081Z,32.03
2023-04-16T05:55:01.893Z,29.60
2023-04-16T05:57:30.176Z,28.70
2023-04-16T05:59:57.181Z,27.10
2023-04-16T06:02:24.370Z,28.57
2023-04-16T06:04:51.270Z,26.03
2023-04-16T06:07:18.275Z,34.67
2023-04-16T06:09:45.747Z,32.37
2023-04-16T06:12:12.822Z,24.57
2023-04-16T06:14:40.075Z,31.83
2023-04-16T06:17:06.937Z,30.93
2023-04-16T06:19:33.769Z,24.63
2023-04-16T06:22:00.830Z,34.23
2023-04-16T06:24:27.861Z,27.20
2023-04-16T06:26:54.998Z,29.13
2023-04-16T06:29:25.929Z,28.50
2023-04-16T06:32:00.777Z,34.10
2023-04-16T06:34:28.565Z,32.53
2023-04-16T06:36:55.751Z,31.23
2023-04-16T06:39:22.645Z,33.47
2023-04-16T06:41:49.766Z,28.17
2023-04-16T06:44:18.050Z,21.93
2023-04-16T06:46:44.922Z,24.57
2023-04-16T06:49:12.125Z,29.67
2023-04-16T06:51:39.342Z,27.50
2023-04-16T06:54:06.283Z,22.93
2023-04-16T06:56:33.417Z,24.10
2023-04-16T06:59:01.076Z,21.80
2023-04-16T07:01:28.558Z,20.70
2023-04-16T07:03:56.013Z,20.80
2023-04-16T07:06:23.128Z,25.70
2023-04-16T07:08:50.681Z,22.50
2023-04-16T07:11:19.090Z,20.30
2023-04-16T07:13:45.967Z,21.47
2023-04-16T07:16:12.861Z,22.20
2023-04-16T07:18:39.944Z,22.67
2023-04-16T07:21:06.857Z,24.23
2023-04-16T07:23:33.816Z,23.97
2023-04-16T07:26:00.956Z,24.07
2023-04-16T07:28:27.792Z,21.07
2023-04-16T07:30:54.921Z,27.73
2023-04-16T07:33:21.803Z,19.20
2023-04-16T07:35:48.598Z,22.90
2023-04-16T07:38:16.444Z,22.47
2023-04-16T07:40:43.537Z,24.57
2023-04-16T07:43:10.695Z,25.03
2023-04-16T07:45:37.568Z,24.97
2023-04-16T07:48:05.870Z,23.17
2023-04-16T07:50:32.997Z,21.60
2023-04-16T07:52:59.993Z,27.33
2023-04-16T07:55:27.097Z,24.40
2023-04-16T07:57:55.312Z,31.57
2023-04-16T08:00:22.258Z,28.00
2023-04-16T08:02:49.447Z,25.80
2023-04-16T08:05:16.526Z,27.53
2023-04-16T08:07:43.496Z,28.27
2023-04-16T08:10:10.665Z,26.83
2023-04-16T08:12:37.708Z,22.60
2023-04-16T08:15:05.506Z,22.00
2023-04-16T08:17:34.462Z,24.77
2023-04-16T08:20:01.860Z,20.80
2023-04-16T08:22:28.969Z,23.17
2023-04-16T08:24:57.519Z,24.77
2023-04-16T08:27:24.630Z,20.47
2023-04-16T08:29:51.582Z,20.23
2023-04-16T08:32:18.678Z,20.27
2023-04-16T08:34:45.740Z,19.00
2023-04-16T08:37:12.613Z,24.43
2023-04-16T08:39:39.707Z,29.80
2023-04-16T08:42:13.223Z,19.53
2023-04-16T08:44:48.550Z,23.57
2023-04-16T08:47:16.798Z,21.30
2023-04-16T08:49:47.625Z,26.77
2023-04-16T08:52:20.340Z,20.80
2023-04-16T08:55:03.721Z,24.03
2023-04-16T08:57:38.847Z,27.73
2023-04-16T09:00:08.154Z,23.13
2023-04-16T09:02:36.179Z,24.87
2023-04-16T09:05:05.896Z,25.83
2023-04-16T09:07:34.723Z,18.50
2023-04-16T09:10:02.295Z,21.70
2023-04-16T09:12:30.878Z,22.47
2023-04-16T09:15:01.248Z,27.40
2023-04-16T09:17:28.426Z,18.00
2023-04-16T09:19:55.437Z,25.20
2023-04-16T09:22:22.334Z,21.37
2023-04-16T09:24:49.137Z,15.77
2023-04-16T09:27:17.419Z,22.97
2023-04-16T09:29:44.355Z,23.77
2023-04-16T09:32:12.174Z,23.03
2023-04-16T09:34:58.728Z,20.37
2023-04-16T09:37:27.103Z,17.87
2023-04-16T09:39:56.924Z,19.20
2023-04-16T09:42:29.258Z,21.40
2023-04-16T09:44:59.432Z,20.77
2023-04-16T09:47:43.478Z,22.43
2023-04-16T09:50:18.232Z,20.73
2023-04-16T09:52:49.234Z,15.33
2023-04-16T09:55:16.674Z,19.67
2023-04-16T09:57:43.772Z,22.93
2023-04-16T10:00:11.662Z,17.77
2023-04-16T10:02:42.677Z,18.27
2023-04-16T10:05:10.049Z,22.10
2023-04-16T10:07:37.388Z,27.50
2023-04-16T10:10:05.426Z,23.10
2023-04-16T10:12:35.651Z,18.23
2023-04-16T10:15:02.665Z,18.10
2023-04-16T10:17:31.620Z,21.43
2023-04-16T10:19:59.108Z,25.33
2023-04-16T10:22:26.694Z,21.67
2023-04-16T10:24:55.074Z,20.17
2023-04-16T10:27:22.885Z,14.87
2023-04-16T10:29:50.812Z,17.40
2023-04-16T10:32:20.913Z,23.57
2023-04-16T10:34:48.059Z,21.20
2023-04-16T10:39:45.158Z,23.30
2023-04-16T10:42:13.052Z,15.43
2023-04-16T10:44:44.280Z,15.73
2023-04-16T10:47:15.358Z,19.23
2023-04-16T10:49:44.163Z,16.87
2023-04-16T10:52:20.236Z,15.30
2023-04-16T10:54:48.284Z,14.50
2023-04-16T10:57:17.905Z,18.27
2023-04-16T10:59:46.176Z,17.37
2023-04-16T11:02:18.804Z,17.23
2023-04-16T11:04:49.843Z,18.80
2023-04-16T11:07:19.958Z,24.00
2023-04-16T11:10:06.815Z,21.57
2023-04-16T11:12:37.624Z,17.30
2023-04-16T11:15:10.161Z,18.17
2023-04-16T11:17:40.280Z,21.57
2023-04-16T11:20:19.324Z,18.43
2023-04-16T11:22:48.680Z,17.23
2023-04-16T11:25:25.100Z,15.03
2023-04-16T11:27:52.761Z,16.17
2023-04-16T11:30:38.035Z,16.50
2023-04-16T11:33:06.161Z,22.23
2023-04-16T11:35:33.097Z,15.53
2023-04-16T11:38:00.384Z,14.53
2023-04-16T11:40:31.490Z,14.77
2023-04-16T11:43:03.945Z,13.57
2023-04-16T11:45:31.332Z,18.03
2023-04-16T11:47:58.511Z,14.07
2023-04-16T11:50:27.836Z,17.80
2023-04-16T11:52:57.579Z,16.50
2023-04-16T11:55:24.915Z,18.87
2023-04-16T11:57:52.364Z,14.80
2023-04-16T12:00:24.239Z,15.23
2023-04-16T12:02:54.036Z,15.37
2023-04-16T12:05:39.161Z,18.23
2023-04-16T12:08:10.716Z,15.97
2023-04-16T12:10:54.792Z,19.10
2023-04-16T12:13:21.997Z,12.70
2023-04-16T12:15:50.933Z,18.67
2023-04-16T12:18:19.506Z,18.90
2023-04-16T12:20:47.293Z,17.67
2023-04-16T12:23:32.904Z,15.47
2023-04-16T12:26:10.720Z,15.77
2023-04-16T12:28:38.642Z,20.90
2023-04-16T12:31:06.447Z,14.20
2023-04-16T12:33:33.597Z,18.43
2023-04-16T12:36:01.907Z,17.23
2023-04-16T12:38:29.797Z,23.77
2023-04-16T12:40:57.803Z,17.13
2023-04-16T12:43:25.735Z,16.53
2023-04-16T12:45:52.788Z,16.67
2023-04-16T12:48:19.823Z,18.70
2023-04-16T12:50:46.956Z,18.80
2023-04-16T12:53:13.757Z,24.93
2023-04-16T12:55:40.718Z,17.90
2023-04-16T12:58:10.577Z,17.57
2023-04-16T13:00:40.435Z,19.00
2023-04-16T13:03:07.729Z,15.70
2023-04-16T13:05:34.978Z,18.93
2023-04-16T13:08:02.227Z,13.97
2023-04-16T13:10:30.643Z,14.17
2023-04-16T13:12:57.756Z,11.63
2023-04-16T13:15:25.017Z,14.87
2023-04-16T13:17:52.021Z,13.00
2023-04-16T13:20:19.048Z,17.60
2023-04-16T13:22:46.241Z,15.07
2023-04-16T13:25:13.283Z,17.13
2023-04-16T13:27:40.233Z,16.23
2023-04-16T13:30:07.826Z,24.67
2023-04-16T13:32:35.174Z,15.50
2023-04-16T13:35:02.686Z,17.97
2023-04-16T13:37:29.569Z,17.30
2023-04-16T13:39:56.991Z,15.40
2023-04-16T13:42:24.086Z,17.87
2023-04-16T13:44:55.077Z,20.23
2023-04-16T13:47:22.109Z,15.17
2023-04-16T13:49:49.244Z,19.10
2023-04-16T13:52:16.228Z,17.87
2023-04-16T13:54:43.122Z,18.50
2023-04-16T13:57:22.912Z,16.63
2023-04-16T13:59:50.467Z,21.60
2023-04-16T14:02:17.574Z,18.00
2023-04-16T14:04:44.607Z,18.83
2023-04-16T14:07:11.632Z,18.80
2023-04-16T14:09:38.464Z,16.43
2023-04-16T14:12:05.994Z,21.53
2023-04-16T14:14:33.086Z,13.10
2023-04-16T14:17:00.034Z,19.20
2023-04-16T14:19:27.074Z,17.93
2023-04-16T14:21:54.605Z,17.00
2023-04-16T14:24:21.469Z,18.37
2023-04-16T14:26:48.542Z,22.20
2023-04-16T14:29:15.682Z,20.50
2023-04-16T14:31:42.692Z,14.60
2023-04-16T14:34:09.836Z,15.03
2023-04-16T14:36:37.246Z,23.20
2023-04-16T14:39:04.773Z,21.17
2023-04-16T14:41:31.795Z,16.97
2023-04-16T14:43:59.755Z,16.27
2023-04-16T14:46:27.261Z,16.13
2023-04-16T14:48:54.895Z,19.90
2023-04-16T14:51:22.111Z,17.53
2023-04-16T14:53:49.680Z,18.53
2023-04-16T14:56:16.723Z,15.57
2023-04-16T14:58:43.731Z,18.03
2023-04-16T15:01:10.950Z,22.33
2023-04-16T15:03:37.998Z,17.40
2023-04-16T15:06:05.923Z,21.50
2023-04-16T15:08:32.997Z,17.50
2023-04-16T15:11:00.020Z,17.33
2023-04-16T15:13:34.258Z,24.30
2023-04-16T15:16:07.419Z,19.43
2023-04-16T15:18:34.750Z,20.23
2023-04-16T15:21:01.735Z,21.97
2023-04-16T15:23:28.756Z,20.57
2023-04-16T15:25:55.758Z,21.90
2023-04-16T15:28:23.528Z,20.30
2023-04-16T15:30:52.437Z,19.53
2023-04-16T15:33:22.351Z,14.20
2023-04-16T15:35:51.488Z,18.07
2023-04-16T15:38:21.330Z,17.33
2023-04-16T15:40:48.165Z,18.50
2023-04-16T15:43:16.039Z,18.07
2023-04-16T15:45:43.037Z,21.53
2023-04-16T15:48:09.896Z,18.33
2023-04-16T15:50:37.002Z,17.17
2023-04-16T15:53:04.061Z,23.40
2023-04-16T15:55:30.895Z,21.80
2023-04-16T15:57:57.836Z,21.03
2023-04-16T16:00:25.090Z,23.17
2023-04-16T16:02:52.277Z,22.00
2023-04-16T16:05:19.322Z,26.83
2023-04-16T16:07:46.550Z,22.53
2023-04-16T16:10:13.736Z,19.43
2023-04-16T16:12:41.288Z,21.03
2023-04-16T16:15:09.229Z,19.67
2023-04-16T16:17:36.172Z,21.10
2023-04-16T16:20:04.106Z,20.47
2023-04-16T16:22:31.010Z,17.60
2023-04-16T16:24:58.057Z,18.37
2023-04-16T16:27:25.040Z,18.60
2023-04-16T16:29:52.092Z,19.30
2023-04-16T16:32:19.062Z,18.23
2023-04-16T16:34:45.954Z,22.87
2023-04-16T16:37:13.159Z,20.20
2023-04-16T16:39:40.461Z,19.90
2023-04-16T16:42:09.243Z,17.30
2023-04-16T16:44:36.824Z,19.60
2023-04-16T16:47:03.824Z,23.73
2023-04-16T16:49:30.853Z,21.30
2023-04-16T16:51:58.043Z,19.57
2023-04-16T16:54:25.259Z,18.30
2023-04-16T16:56:53.183Z,21.37
2023-04-16T16:59:20.838Z,18.27
2023-04-16T17:01:47.932Z,21.57
2023-04-16T17:04:15.616Z,19.37
2023-04-16T17:06:44.145Z,18.17
2023-04-16T17:09:11.370Z,18.43
2023-04-16T17:11:38.562Z,14.07
2023-04-16T17:14:05.634Z,16.40
2023-04-16T17:16:32.580Z,16.77
2023-04-16T17:19:00.257Z,21.07
2023-04-16T17:21:28.781Z,18.43
2023-04-16T17:23:57.522Z,20.97
2023-04-16T17:26:24.555Z,18.57
2023-04-16T17:28:51.795Z,21.80
2023-04-16T17:31:18.699Z,19.33
2023-04-16T17:33:45.765Z,19.27
2023-04-16T17:36:13.101Z,19.23
2023-04-16T17:38:40.092Z,16.47
2023-04-16T17:41:07.368Z,17.57
2023-04-16T17:43:34.435Z,16.47
2023-04-16T17:46:01.582Z,18.20
2023-04-16T17:48:30.871Z,19.97
2023-04-16T17:50:58.045Z,19.70
2023-04-16T17:53:25.047Z,18.20
2023-04-16T17:55:55.206Z,17.67
2023-04-16T17:58:24.001Z,18.33
2023-04-16T18:00:50.958Z,16.87
2023-04-16T18:03:19.398Z,20.90
2023-04-16T18:05:48.342Z,18.73
2023-04-16T18:08:15.222Z,18.83
2023-04-16T18:10:42.076Z,14.30
2023-04-16T18:13:09.032Z,15.83
2023-04-16T18:15:38.032Z,14.80
2023-04-16T18:18:05.672Z,19.33
2023-04-16T18:20:32.595Z,17.20
2023-04-16T18:22:59.665Z,15.97
2023-04-16T18:25:34.336Z,18.50
2023-04-16T18:28:02.346Z,16.90
2023-04-16T18:30:29.563Z,16.70
2023-04-16T18:33:19.473Z,15.43
2023-04-16T18:35:43.602Z,18.37
2023-04-16T18:38:10.915Z,15.10
2023-04-16T18:40:37.771Z,12.67
2023-04-16T18:43:04.766Z,16.20
2023-04-16T18:45:34.280Z,12.97
2023-04-16T18:48:03.582Z,14.60
2023-04-16T18:50:31.105Z,14.13
2023-04-16T18:52:57.987Z,16.17
2023-04-16T18:55:25.108Z,15.30
2023-04-16T18:57:52.214Z,12.90
2023-04-16T19:00:20.016Z,14.93
2023-04-16T19:02:47.385Z,13.13
2023-04-16T19:05:14.542Z,15.53
2023-04-16T19:07:41.893Z,13.87
2023-04-16T19:10:09.303Z,15.13
2023-04-16T19:12:36.470Z,15.47
2023-04-16T19:15:04.229Z,15.73
2023-04-16T19:17:31.249Z,14.27
2023-04-16T19:19:58.347Z,13.40
2023-04-16T19:22:25.222Z,12.00
2023-04-16T19:24:52.421Z,11.27
2023-04-16T19:27:19.450Z,11.07
2023-04-16T19:29:47.083Z,11.43
2023-04-16T19:32:14.467Z,11.63
2023-04-16T19:34:41.474Z,12.00
2023-04-16T19:37:08.299Z,10.10
2023-04-16T19:39:35.306Z,9.33
2023-04-16T19:42:02.854Z,10.13
2023-04-16T19:44:30.218Z,9.43
2023-04-16T19:46:57.122Z,9.83
2023-04-16T19:49:34.354Z,9.17
2023-04-16T19:52:01.652Z,10.70
2023-04-16T19:54:28.853Z,11.03
2023-04-16T19:56:57.166Z,9.90
2023-04-16T19:59:25.082Z,10.87
2023-04-16T20:01:52.045Z,9.97
2023-04-16T20:04:19.201Z,10.30
2023-04-16T20:06:46.578Z,10.63
2023-04-16T20:09:13.765Z,9.03
2023-04-16T20:11:40.891Z,11.63
2023-04-16T20:14:07.739Z,8.67
2023-04-16T20:16:35.125Z,11.27
2023-04-16T20:19:04.700Z,10.10
2023-04-16T20:21:33.376Z,9.00
2023-04-16T20:24:00.704Z,9.37
2023-04-16T20:26:34.201Z,9.27
2023-04-16T20:29:01.126Z,8.77
2023-04-16T20:31:28.123Z,9.97
2023-04-16T20:33:55.417Z,9.40
2023-04-16T20:36:22.604Z,11.10
2023-04-16T20:38:51.492Z,9.13
2023-04-16T20:41:22.724Z,9.77
2023-04-16T20:43:53.099Z,10.00
2023-04-16T20:46:24.297Z,10.73
2023-04-16T20:48:54.944Z,12.13
2023-04-16T20:51:22.294Z,13.20
2023-04-16T20:53:52.309Z,13.27
2023-04-16T20:56:19.365Z,13.03
2023-04-16T20:58:46.447Z,13.37
2023-04-16T21:01:13.515Z,10.07
2023-04-16T21:03:40.858Z,9.73
2023-04-16T21:06:07.873Z,9.33
2023-04-16T21:08:35.093Z,9.90
2023-04-16T21:11:02.202Z,9.83
2023-04-16T21:13:29.189Z,8.03
2023-04-16T21:15:56.147Z,9.30
2023-04-16T21:18:23.112Z,9.53
2023-04-16T21:20:50.492Z,9.77
2023-04-16T21:23:17.763Z,10.53
2023-04-16T21:25:44.573Z,10.73
2023-04-16T21:28:11.678Z,12.83
2023-04-16T21:30:38.996Z,11.80
2023-04-16T21:33:06.682Z,9.93
2023-04-16T21:35:33.977Z,13.57
2023-04-16T21:38:01.011Z,9.37
2023-04-16T21:40:28.066Z,10.87
2023-04-16T21:42:55.577Z,9.73
2023-04-16T21:45:22.597Z,9.70
2023-04-16T21:47:50.706Z,11.20
2023-04-16T21:50:17.893Z,10.77
2023-04-16T21:52:46.282Z,11.53
2023-04-16T21:55:14.321Z,11.30
2023-04-16T21:57:41.247Z,11.57
2023-04-16T22:00:14.359Z,13.53
2023-04-16T22:02:42.895Z,13.30
2023-04-16T22:05:11.406Z,11.70
2023-04-16T22:07:38.647Z,11.77
2023-04-16T22:10:06.841Z,12.07
2023-04-16T22:12:39.915Z,13.77
2023-04-16T22:15:08.159Z,12.57
2023-04-16T22:17:35.348Z,11.33
2023-04-16T22:20:22.416Z,14.63
2023-04-16T22:23:09.344Z,12.60
2023-04-16T22:25:36.347Z,14.47
2023-04-16T22:28:03.296Z,11.17
2023-04-16T22:30:30.507Z,14.50
2023-04-16T22:32:58.133Z,14.07
2023-04-16T22:35:25.173Z,16.30
2023-04-16T22:37:51.971Z,19.73
2023-04-16T22:40:19.090Z,15.03
2023-04-16T22:42:46.069Z,18.80
2023-04-16T22:45:12.952Z,15.87
2023-04-16T22:47:40.288Z,14.67
2023-04-16T22:50:08.200Z,15.10
2023-04-16T22:52:35.467Z,16.20
2023-04-16T22:55:02.526Z,17.30
2023-04-16T22:57:29.346Z,15.30
2023-04-16T22:59:56.343Z,15.73
2023-04-16T23:02:23.606Z,11.77
2023-04-16T23:04:50.539Z,14.13
2023-04-16T23:07:17.390Z,16.43
2023-04-16T23:09:44.370Z,14.83
2023-04-16T23:12:11.244Z,15.73
2023-04-16T23:14:38.220Z,15.63
2023-04-16T23:17:05.244Z,14.53
2023-04-16T23:19:35.024Z,12.90
2023-04-16T23:22:01.931Z,16.30
2023-04-16T23:24:29.204Z,16.60
2023-04-16T23:26:56.442Z,15.13
2023-04-16T23:29:23.940Z,14.90
2023-04-16T23:31:51.093Z,15.43
2023-04-16T23:34:18.090Z,15.00
2023-04-16T23:36:46.182Z,16.87
2023-04-16T23:39:13.536Z,16.87
2023-04-16T23:41:40.642Z,15.30
2023-04-16T23:44:07.484Z,15.63
2023-04-16T23:46:34.459Z,14.43
2023-04-16T23:49:01.734Z,14.40
2023-04-16T23:51:28.619Z,16.23
2023-04-16T23:53:55.782Z,13.00
2023-04-16T23:56:22.773Z,14.43
2023-04-16T23:58:49.620Z,15.67
